createdAt,value
2019-05-12T00:01:09.784Z,15.00
2019-05-12T00:03:31.271Z,14.90
2019-05-12T00:05:52.913Z,14.90
2019-05-12T00:08:14.340Z,15.00
2019-05-12T00:10:35.722Z,15.00
2019-05-12T00:12:58.251Z,15.00
2019-05-12T00:15:19.802Z,15.00
2019-05-12T00:17:41.354Z,14.90
2019-05-12T00:20:04.776Z,14.90
2019-05-12T00:22:28.685Z,14.90
2019-05-12T00:24:50.425Z,14.90
2019-05-12T00:27:13.714Z,14.90
2019-05-12T00:29:37.711Z,14.90
2019-05-12T00:31:59.045Z,14.90
2019-05-12T00:34:20.837Z,14.90
2019-05-12T00:36:42.377Z,14.90
2019-05-12T00:39:07.944Z,14.90
2019-05-12T00:41:28.841Z,14.90
2019-05-12T00:43:50.408Z,14.90
2019-05-12T00:46:11.890Z,14.90
2019-05-12T00:48:33.294Z,15.00
2019-05-12T00:50:54.721Z,15.10
2019-05-12T00:53:16.108Z,15.10
2019-05-12T00:55:38.052Z,15.20
2019-05-12T00:58:00.323Z,15.20
2019-05-12T01:00:21.702Z,15.20
2019-05-12T01:02:42.993Z,15.30
2019-05-12T01:05:08.613Z,15.30
2019-05-12T01:07:30.349Z,15.30
2019-05-12T01:09:51.743Z,15.30
2019-05-12T01:12:13.524Z,15.40
2019-05-12T01:14:34.802Z,15.40
2019-05-12T01:16:57.833Z,15.30
2019-05-12T01:19:19.713Z,15.30
2019-05-12T01:21:40.975Z,15.30
2019-05-12T01:24:03.454Z,15.30
2019-05-12T01:26:25.200Z,15.30
2019-05-12T01:28:48.784Z,15.30
2019-05-12T01:31:12.021Z,15.20
2019-05-12T01:33:33.569Z,15.10
2019-05-12T01:35:54.945Z,15.00
2019-05-12T01:38:18.188Z,15.00
2019-05-12T01:40:39.911Z,15.00
2019-05-12T01:43:01.662Z,15.10
2019-05-12T01:45:23.281Z,15.00
2019-05-12T01:47:44.813Z,15.00
2019-05-12T01:50:09.098Z,15.00
2019-05-12T01:52:30.195Z,14.90
2019-05-12T01:54:51.497Z,14.90
2019-05-12T01:57:13.103Z,14.80
2019-05-12T01:59:34.384Z,14.60
2019-05-12T02:01:57.965Z,14.50
2019-05-12T02:04:19.197Z,14.50
2019-05-12T02:06:40.487Z,14.50
2019-05-12T02:09:03.714Z,14.50
2019-05-12T02:11:31.130Z,14.50
2019-05-12T02:13:52.609Z,14.50
2019-05-12T02:16:14.033Z,14.40
2019-05-12T02:18:37.760Z,14.40
2019-05-12T02:20:59.101Z,14.40
2019-05-12T02:23:20.525Z,14.40
2019-05-12T02:25:42.134Z,14.40
2019-05-12T02:28:03.738Z,14.40
2019-05-12T02:30:25.363Z,14.40
2019-05-12T02:32:52.993Z,14.40
2019-05-12T02:35:09.827Z,14.50
2019-05-12T02:37:31.155Z,14.50
2019-05-12T02:39:55.445Z,14.40
2019-05-12T02:42:15.943Z,14.50
2019-05-12T02:44:37.385Z,14.50
2019-05-12T02:46:58.931Z,14.50
2019-05-12T02:49:20.364Z,14.50
2019-05-12T02:51:44.700Z,14.50
2019-05-12T02:54:05.855Z,14.60
2019-05-12T02:56:27.653Z,14.60
2019-05-12T02:58:49.074Z,14.60
2019-05-12T03:01:10.568Z,14.70
2019-05-12T03:03:35.015Z,14.70
2019-05-12T03:05:56.562Z,14.70
2019-05-12T03:08:19.071Z,14.70
2019-05-12T03:10:44.698Z,14.70
2019-05-12T03:13:04.574Z,14.70
2019-05-12T03:15:26.564Z,14.60
2019-05-12T03:17:48.332Z,14.70
2019-05-12T03:20:09.742Z,14.70
2019-05-12T03:22:31.226Z,14.70
2019-05-12T03:25:07.749Z,14.60
2019-05-12T03:27:17.861Z,14.50
2019-05-12T03:29:38.934Z,14.50
2019-05-12T03:32:00.448Z,14.50
2019-05-12T03:34:21.765Z,14.40
2019-05-12T03:36:49.981Z,14.40
2019-05-12T03:39:07.959Z,14.40
2019-05-12T03:41:29.313Z,14.40
2019-05-12T03:43:50.809Z,14.40
2019-05-12T03:46:14.990Z,14.30
2019-05-12T03:48:35.446Z,14.30
2019-05-12T03:50:57.027Z,14.30
2019-05-12T03:53:18.313Z,14.30
2019-05-12T03:55:42.309Z,14.40
2019-05-12T03:58:04.531Z,14.40
2019-05-12T04:00:26.227Z,14.40
2019-05-12T04:02:47.643Z,14.30
2019-05-12T04:05:08.916Z,14.30
2019-05-12T04:07:30.300Z,14.40
2019-05-12T04:09:54.578Z,14.40
2019-05-12T04:12:15.112Z,14.40
2019-05-12T04:14:36.383Z,14.40
2019-05-12T04:16:57.874Z,14.30
2019-05-12T04:19:19.467Z,14.30
2019-05-12T04:21:44.349Z,14.30
2019-05-12T04:24:05.506Z,14.30
2019-05-12T04:26:27.521Z,14.20
2019-05-12T04:28:49.026Z,14.30
2019-05-12T04:31:10.526Z,14.30
2019-05-12T04:33:34.670Z,14.30
2019-05-12T04:35:55.533Z,14.30
2019-05-12T04:38:17.079Z,14.30
2019-05-12T04:40:38.454Z,14.30
2019-05-12T04:43:00.009Z,14.30
2019-05-12T04:45:21.306Z,14.30
2019-05-12T04:47:44.943Z,14.20
2019-05-12T04:50:06.401Z,14.20
2019-05-12T04:52:27.982Z,14.30
2019-05-12T04:54:49.382Z,14.30
2019-05-12T04:57:10.797Z,14.40
2019-05-12T04:59:34.498Z,14.50
2019-05-12T05:01:55.558Z,14.50
2019-05-12T05:04:17.082Z,14.60
2019-05-12T05:07:35.838Z,14.70
2019-05-12T05:09:57.863Z,14.80
2019-05-12T05:12:19.480Z,14.90
2019-05-12T05:14:41.107Z,15.10
2019-05-12T05:17:05.533Z,15.20
2019-05-12T05:19:26.537Z,15.30
2019-05-12T05:21:48.165Z,15.50
2019-05-12T05:24:09.838Z,15.70
2019-05-12T05:26:36.404Z,15.70
2019-05-12T05:28:55.390Z,15.80
2019-05-12T05:31:17.032Z,15.80
2019-05-12T05:33:38.663Z,15.80
2019-05-12T05:36:00.308Z,15.90
2019-05-12T05:38:23.689Z,15.90
2019-05-12T05:40:45.370Z,16.00
2019-05-12T05:43:18.389Z,16.10
2019-05-12T05:45:30.777Z,16.10
2019-05-12T05:47:54.289Z,16.20
2019-05-12T05:50:18.551Z,16.30
2019-05-12T05:52:39.713Z,16.40
2019-05-12T05:55:05.916Z,16.40
2019-05-12T05:57:28.289Z,16.40
2019-05-12T05:59:48.283Z,16.50
2019-05-12T06:02:09.925Z,16.60
2019-05-12T06:04:33.911Z,16.60
2019-05-12T06:06:56.041Z,16.60
2019-05-12T06:09:17.965Z,16.70
2019-05-12T06:11:39.580Z,16.60
2019-05-12T06:14:03.048Z,16.60
2019-05-12T06:16:25.263Z,16.50
2019-05-12T06:18:47.358Z,16.50
2019-05-12T06:21:09.221Z,16.50
2019-05-12T06:23:34.914Z,16.60
2019-05-12T06:25:54.904Z,16.90
2019-05-12T06:28:17.133Z,16.90
2019-05-12T06:30:44.304Z,17.00
2019-05-12T06:33:04.191Z,17.00
2019-05-12T06:35:26.013Z,16.90
2019-05-12T06:37:57.313Z,16.90
2019-05-12T06:40:11.109Z,16.80
2019-05-12T06:42:34.195Z,16.60
2019-05-12T06:44:58.163Z,16.50
2019-05-12T06:47:20.040Z,16.50
2019-05-12T06:49:43.865Z,16.50
2019-05-12T06:52:07.175Z,16.50
2019-05-12T06:54:28.610Z,16.60
2019-05-12T06:56:55.294Z,16.70
2019-05-12T06:59:19.723Z,16.80
2019-05-12T07:01:41.356Z,16.90
2019-05-12T07:04:06.455Z,17.00
2019-05-12T07:06:26.748Z,17.20
2019-05-12T07:09:01.270Z,17.30
2019-05-12T07:11:14.348Z,17.40
2019-05-12T07:13:35.993Z,17.40
2019-05-12T07:15:59.495Z,17.50
2019-05-12T07:18:24.421Z,17.60
2019-05-12T07:20:45.570Z,17.70
2019-05-12T07:23:07.223Z,17.80
2019-05-12T07:25:31.163Z,18.00
2019-05-12T07:27:58.513Z,18.00
2019-05-12T07:30:20.441Z,18.10
2019-05-12T07:32:43.405Z,18.20
2019-05-12T07:35:06.004Z,18.20
2019-05-12T07:37:29.990Z,18.20
2019-05-12T07:39:53.834Z,18.20
2019-05-12T07:42:15.534Z,18.10
2019-05-12T07:44:40.064Z,18.20
2019-05-12T07:47:03.392Z,18.30
2019-05-12T07:49:34.080Z,18.40
2019-05-12T07:51:50.131Z,18.50
2019-05-12T07:54:14.298Z,18.50
2019-05-12T07:56:36.080Z,18.50
2019-05-12T07:58:58.045Z,18.60
2019-05-12T08:01:19.669Z,18.70
2019-05-12T08:03:43.530Z,18.80
2019-05-12T08:06:04.978Z,18.90
2019-05-12T08:08:26.615Z,18.90
2019-05-12T08:10:51.523Z,18.70
2019-05-12T08:13:11.688Z,18.70
2019-05-12T08:15:34.104Z,18.80
2019-05-12T08:17:59.595Z,18.70
2019-05-12T08:20:38.944Z,18.60
2019-05-12T08:23:05.861Z,18.60
2019-05-12T08:25:28.699Z,18.60
2019-05-12T08:27:51.297Z,18.70
2019-05-12T08:30:13.814Z,18.90
2019-05-12T08:32:35.245Z,18.90
2019-05-12T08:34:56.944Z,19.00
2019-05-12T08:37:19.301Z,19.10
2019-05-12T08:39:44.261Z,19.10
2019-05-12T08:42:06.195Z,19.20
2019-05-12T08:44:33.757Z,19.20
2019-05-12T08:46:56.311Z,19.10
2019-05-12T08:49:15.887Z,19.20
2019-05-12T08:51:38.456Z,19.20
2019-05-12T08:54:07.838Z,19.20
2019-05-12T08:56:26.100Z,19.30
2019-05-12T08:58:51.075Z,19.30
2019-05-12T09:01:10.541Z,19.30
2019-05-12T09:03:33.533Z,19.30
2019-05-12T09:05:55.281Z,19.40
2019-05-12T09:08:16.977Z,19.50
2019-05-12T09:10:38.600Z,19.60
2019-05-12T09:13:00.221Z,19.70
2019-05-12T09:15:23.410Z,19.70
2019-05-12T09:17:52.504Z,19.90
2019-05-12T09:20:09.044Z,20.00
2019-05-12T09:22:30.683Z,20.10
2019-05-12T09:24:53.409Z,20.20
2019-05-12T09:27:15.430Z,20.30
2019-05-12T09:29:37.079Z,20.30
2019-05-12T09:31:59.278Z,20.30
2019-05-12T09:34:23.521Z,20.20
2019-05-12T09:36:45.296Z,20.20
2019-05-12T09:39:07.451Z,20.30
2019-05-12T09:41:35.987Z,20.40
2019-05-12T09:43:53.430Z,20.50
2019-05-12T09:46:15.392Z,20.40
2019-05-12T09:48:39.116Z,20.50
2019-05-12T09:51:05.797Z,20.70
2019-05-12T09:53:26.417Z,20.90
2019-05-12T09:55:48.091Z,21.00
2019-05-12T09:58:16.228Z,21.10
2019-05-12T10:00:35.786Z,21.30
2019-05-12T10:02:59.550Z,21.40
2019-05-12T10:05:20.647Z,21.60
2019-05-12T10:07:44.364Z,21.80
2019-05-12T10:10:06.324Z,21.80
2019-05-12T10:12:29.695Z,21.90
2019-05-12T10:14:53.427Z,21.90
2019-05-12T10:17:14.823Z,22.00
2019-05-12T10:19:36.444Z,22.20
2019-05-12T10:21:59.551Z,22.40
2019-05-12T10:24:21.631Z,22.30
2019-05-12T10:26:48.920Z,22.10
2019-05-12T10:29:16.481Z,22.00
2019-05-12T10:31:35.550Z,22.00
2019-05-12T10:33:58.217Z,22.10
2019-05-12T10:36:18.779Z,21.90
2019-05-12T10:38:40.404Z,21.70
2019-05-12T10:41:04.417Z,21.60
2019-05-12T10:43:26.122Z,21.80
2019-05-12T10:45:48.118Z,21.70
2019-05-12T10:48:09.728Z,21.80
2019-05-12T10:50:33.800Z,22.00
2019-05-12T10:52:54.730Z,22.10
2019-05-12T10:55:16.649Z,22.00
2019-05-12T10:57:38.280Z,21.80
2019-05-12T10:59:59.899Z,21.70
2019-05-12T11:02:26.413Z,21.80
2019-05-12T11:04:44.953Z,21.80
2019-05-12T11:07:06.671Z,21.70
2019-05-12T11:09:31.540Z,21.70
2019-05-12T11:11:53.927Z,22.00
2019-05-12T11:14:15.241Z,22.20
2019-05-12T11:16:36.935Z,22.30
2019-05-12T11:19:00.233Z,22.30
2019-05-12T11:21:22.009Z,22.30
2019-05-12T11:23:43.730Z,22.40
2019-05-12T11:26:05.712Z,22.40
2019-05-12T11:28:27.335Z,22.70
2019-05-12T11:30:48.995Z,22.90
2019-05-12T11:33:10.609Z,23.00
2019-05-12T11:35:33.435Z,23.10
2019-05-12T11:37:55.261Z,23.10
2019-05-12T11:40:16.940Z,23.20
2019-05-12T11:42:38.562Z,23.30
2019-05-12T11:45:20.017Z,23.40
2019-05-12T11:47:41.683Z,23.40
2019-05-12T11:50:09.742Z,23.10
2019-05-12T11:52:30.861Z,23.00
2019-05-12T11:54:53.842Z,23.00
2019-05-12T11:57:20.201Z,23.00
2019-05-12T11:59:39.003Z,23.10
2019-05-12T12:02:00.960Z,23.00
2019-05-12T12:04:24.392Z,22.90
2019-05-12T12:06:46.055Z,23.10
2019-05-12T12:09:09.309Z,23.30
2019-05-12T12:11:31.115Z,23.20
2019-05-12T12:13:53.562Z,23.10
2019-05-12T12:16:15.572Z,23.00
2019-05-12T12:18:37.535Z,23.00
2019-05-12T12:21:04.094Z,23.00
2019-05-12T12:23:23.404Z,23.10
2019-05-12T12:25:48.524Z,23.10
2019-05-12T12:28:09.328Z,23.10
2019-05-12T12:30:33.687Z,23.10
2019-05-12T12:32:57.111Z,23.10
2019-05-12T12:35:18.259Z,23.10
2019-05-12T12:37:39.882Z,23.20
2019-05-12T12:40:04.082Z,23.30
2019-05-12T12:42:30.311Z,23.50
2019-05-12T12:44:53.601Z,23.60
2019-05-12T12:47:14.127Z,23.40
2019-05-12T12:49:39.889Z,23.30
2019-05-12T12:51:59.772Z,23.30
2019-05-12T12:54:21.393Z,23.30
2019-05-12T12:56:43.090Z,23.20
2019-05-12T12:59:10.134Z,23.30
2019-05-12T13:01:30.880Z,23.20
2019-05-12T13:03:53.598Z,23.10
2019-05-12T13:06:17.345Z,22.90
2019-05-12T13:08:38.440Z,22.70
2019-05-12T13:11:00.101Z,22.70
2019-05-12T13:13:21.742Z,22.70
2019-05-12T13:15:44.372Z,22.50
2019-05-12T13:18:08.951Z,22.40
2019-05-12T13:20:29.520Z,22.30
2019-05-12T13:22:53.496Z,22.20
2019-05-12T13:25:14.583Z,22.30
2019-05-12T13:27:36.912Z,22.30
2019-05-12T13:30:01.773Z,22.40
2019-05-12T13:32:25.941Z,22.60
2019-05-12T13:34:45.542Z,22.70
2019-05-12T13:37:09.256Z,22.80
2019-05-12T13:39:30.652Z,22.80
2019-05-12T13:41:56.279Z,22.90
2019-05-12T13:44:15.799Z,22.90
2019-05-12T13:46:37.445Z,22.80
2019-05-12T13:48:59.951Z,22.80
2019-05-12T13:51:23.963Z,22.90
2019-05-12T13:53:48.983Z,23.10
2019-05-12T13:56:08.768Z,23.10
2019-05-12T13:58:34.826Z,23.10
2019-05-12T14:01:10.375Z,23.30
2019-05-12T14:03:17.313Z,23.50
2019-05-12T14:05:41.218Z,23.70
2019-05-12T14:08:03.959Z,23.80
2019-05-12T14:10:25.789Z,23.80
2019-05-12T14:12:47.854Z,23.90
2019-05-12T14:15:09.483Z,23.80
2019-05-12T14:17:36.189Z,23.70
2019-05-12T14:19:54.586Z,23.70
2019-05-12T14:22:21.176Z,23.50
2019-05-12T14:24:41.871Z,23.30
2019-05-12T14:27:04.098Z,23.30
2019-05-12T14:29:30.452Z,23.20
2019-05-12T14:31:56.053Z,23.30
2019-05-12T14:34:18.723Z,23.30
2019-05-12T14:36:37.069Z,23.30
2019-05-12T14:39:00.229Z,23.20
2019-05-12T14:41:24.857Z,23.10
2019-05-12T14:43:47.796Z,23.00
2019-05-12T14:46:10.524Z,22.70
2019-05-12T14:48:33.556Z,22.50
2019-05-12T14:50:55.532Z,22.40
2019-05-12T14:53:17.168Z,22.50
2019-05-12T14:55:38.808Z,22.60
2019-05-12T14:58:00.429Z,22.60
2019-05-12T15:00:24.150Z,22.70
2019-05-12T15:02:45.841Z,22.60
2019-05-12T15:05:10.797Z,22.30
2019-05-12T15:07:30.880Z,22.30
2019-05-12T15:09:55.682Z,22.40
2019-05-12T15:12:15.981Z,22.50
2019-05-12T15:14:38.250Z,22.60
2019-05-12T15:17:03.545Z,22.50
2019-05-12T15:19:27.818Z,22.50
2019-05-12T15:21:47.890Z,22.40
2019-05-12T15:24:15.231Z,22.50
2019-05-12T15:26:33.044Z,22.70
2019-05-12T15:28:54.684Z,22.90
2019-05-12T15:31:17.549Z,23.00
2019-05-12T15:33:39.246Z,23.00
2019-05-12T15:36:00.891Z,23.10
2019-05-12T15:38:23.905Z,23.30
2019-05-12T15:40:46.283Z,23.40
2019-05-12T15:43:09.302Z,23.30
2019-05-12T15:45:31.375Z,23.20
2019-05-12T15:47:53.568Z,23.10
2019-05-12T15:50:16.032Z,23.10
2019-05-12T15:52:42.495Z,23.00
2019-05-12T15:55:05.710Z,22.90
2019-05-12T15:57:28.991Z,22.80
2019-05-12T16:00:10.514Z,22.80
2019-05-12T16:02:33.992Z,22.70
2019-05-12T16:04:55.588Z,22.70
2019-05-12T16:07:17.257Z,22.60
2019-05-12T16:09:38.878Z,22.50
2019-05-12T16:12:10.005Z,22.30
2019-05-12T16:14:30.473Z,22.30
2019-05-12T16:16:54.723Z,22.20
2019-05-12T16:19:16.693Z,22.20
2019-05-12T16:21:38.730Z,22.10
2019-05-12T16:24:04.981Z,22.10
2019-05-12T16:26:24.224Z,22.00
2019-05-12T16:28:46.008Z,22.00
2019-05-12T16:31:08.972Z,21.90
2019-05-12T16:33:30.596Z,21.80
2019-05-12T16:35:54.509Z,21.90
2019-05-12T16:38:19.874Z,21.90
2019-05-12T16:40:44.854Z,21.90
2019-05-12T16:43:03.978Z,21.80
2019-05-12T16:45:25.806Z,21.80
2019-05-12T16:47:48.847Z,21.80
2019-05-12T16:50:15.075Z,21.70
2019-05-12T16:52:40.534Z,21.70
2019-05-12T16:54:58.448Z,21.40
2019-05-12T16:57:20.132Z,21.20
2019-05-12T16:59:42.658Z,21.20
2019-05-12T17:02:07.571Z,21.10
2019-05-12T17:04:27.770Z,21.00
2019-05-12T17:06:49.521Z,20.90
2019-05-12T17:09:13.452Z,20.70
2019-05-12T17:11:37.308Z,20.60
2019-05-12T17:14:04.029Z,20.50
2019-05-12T17:16:23.016Z,20.40
2019-05-12T17:18:44.667Z,20.30
2019-05-12T17:21:07.144Z,20.30
2019-05-12T17:23:28.776Z,20.30
2019-05-12T17:25:50.417Z,20.10
2019-05-12T17:28:13.598Z,20.00
2019-05-12T17:30:35.208Z,19.90
2019-05-12T17:33:01.412Z,19.80
2019-05-12T17:35:25.701Z,19.60
2019-05-12T17:37:43.720Z,19.50
2019-05-12T17:40:09.324Z,19.40
2019-05-12T17:42:29.784Z,19.30
2019-05-12T17:44:51.406Z,19.30
2019-05-12T17:47:21.390Z,19.20
2019-05-12T17:49:39.041Z,19.10
2019-05-12T17:52:04.276Z,19.00
2019-05-12T17:54:26.506Z,18.90
2019-05-12T17:56:47.174Z,18.90
2019-05-12T17:59:08.796Z,18.80
2019-05-12T18:01:31.533Z,18.80
2019-05-12T18:03:54.041Z,18.70
2019-05-12T18:06:20.394Z,18.60
2019-05-12T18:08:41.290Z,18.40
2019-05-12T18:11:03.760Z,18.30
2019-05-12T18:13:28.155Z,18.30
2019-05-12T18:15:49.842Z,18.20
2019-05-12T18:18:15.296Z,18.20
2019-05-12T18:20:40.100Z,18.10
2019-05-12T18:22:58.875Z,18.10
2019-05-12T18:25:29.898Z,18.00
2019-05-12T18:27:50.620Z,18.00
2019-05-12T18:30:08.016Z,17.90
2019-05-12T18:32:29.639Z,17.80
2019-05-12T18:34:53.883Z,17.80
2019-05-12T18:37:15.246Z,17.80
2019-05-12T18:39:36.909Z,17.70
2019-05-12T18:41:58.497Z,17.70
2019-05-12T18:44:26.274Z,17.70
2019-05-12T18:46:46.460Z,17.60
2019-05-12T18:49:12.269Z,17.50
2019-05-12T18:51:34.149Z,17.50
2019-05-12T18:53:57.809Z,17.40
2019-05-12T18:56:21.772Z,17.40
2019-05-12T18:58:44.495Z,17.40
2019-05-12T19:01:06.768Z,17.30
2019-05-12T19:03:28.367Z,17.30
2019-05-12T19:05:50.016Z,17.30
2019-05-12T19:08:13.839Z,17.20
2019-05-12T19:10:38.575Z,17.20
2019-05-12T19:13:01.956Z,17.10
2019-05-12T19:15:22.209Z,17.10
2019-05-12T19:17:45.887Z,17.00
2019-05-12T19:20:07.454Z,17.00
2019-05-12T19:22:29.127Z,17.00
2019-05-12T19:24:58.293Z,16.90
2019-05-12T19:27:18.979Z,16.90
2019-05-12T19:29:45.482Z,16.90
2019-05-12T19:32:01.087Z,16.90
2019-05-12T19:34:25.898Z,16.90
2019-05-12T19:36:49.350Z,16.80
2019-05-12T19:39:09.582Z,16.80
2019-05-12T19:41:36.450Z,16.70
2019-05-12T19:43:54.735Z,16.70
2019-05-12T19:46:16.358Z,16.70
2019-05-12T19:48:47.636Z,16.70
2019-05-12T19:51:15.961Z,16.70
2019-05-12T19:53:25.020Z,16.60
2019-05-12T19:55:46.748Z,16.60
2019-05-12T19:58:12.724Z,16.60
2019-05-12T20:00:33.528Z,16.60
2019-05-12T20:02:55.463Z,16.50
2019-05-12T20:05:17.762Z,16.50
2019-05-12T20:07:39.505Z,16.40
2019-05-12T20:10:01.191Z,16.40
2019-05-12T20:12:24.124Z,16.40
2019-05-12T20:14:45.968Z,16.30
2019-05-12T20:17:07.624Z,16.30
2019-05-12T20:19:29.295Z,16.30
2019-05-12T20:21:50.913Z,16.30
2019-05-12T20:24:14.333Z,16.30
2019-05-12T20:26:38.388Z,16.20
2019-05-12T20:28:59.440Z,16.20
2019-05-12T20:31:24.466Z,16.10
2019-05-12T20:33:45.439Z,16.10
2019-05-12T20:36:07.058Z,16.10
2019-05-12T20:38:33.921Z,16.10
2019-05-12T20:40:54.039Z,16.00
2019-05-12T20:43:15.563Z,16.00
2019-05-12T20:45:40.839Z,16.00
2019-05-12T20:48:00.725Z,16.00
2019-05-12T20:50:24.311Z,16.00
2019-05-12T20:52:51.257Z,16.00
2019-05-12T20:55:09.300Z,16.00
2019-05-12T20:57:30.924Z,16.00
2019-05-12T20:59:52.628Z,16.00
2019-05-12T21:02:14.263Z,16.00
2019-05-12T21:04:37.908Z,16.00
2019-05-12T21:06:59.332Z,16.00
2019-05-12T21:09:23.518Z,15.90
2019-05-12T21:11:44.399Z,15.90
2019-05-12T21:14:09.741Z,15.80
2019-05-12T21:16:34.622Z,15.80
2019-05-12T21:19:05.593Z,15.80
2019-05-12T21:21:16.403Z,15.70
2019-05-12T21:23:38.070Z,15.70
2019-05-12T21:25:59.686Z,15.70
2019-05-12T21:28:23.631Z,15.60
2019-05-12T21:30:48.094Z,15.50
2019-05-12T21:33:08.201Z,15.50
2019-05-12T21:35:39.180Z,15.50
2019-05-12T21:37:53.736Z,15.40
2019-05-12T21:40:15.608Z,15.40
2019-05-12T21:42:37.263Z,15.30
2019-05-12T21:44:58.909Z,15.20
2019-05-12T21:47:20.562Z,15.20
2019-05-12T21:49:42.609Z,15.20
2019-05-12T21:52:06.666Z,15.10
2019-05-12T21:54:29.421Z,15.10
2019-05-12T21:56:54.284Z,15.00
2019-05-12T21:59:15.884Z,15.00
2019-05-12T22:01:43.171Z,14.90
2019-05-12T22:04:02.572Z,15.00
2019-05-12T22:06:24.921Z,14.90
2019-05-12T22:08:46.950Z,14.80
2019-05-12T22:11:11.491Z,14.80
2019-05-12T22:13:32.048Z,14.70
2019-05-12T22:15:56.969Z,14.60
2019-05-12T22:18:17.493Z,14.60
2019-05-12T22:20:39.101Z,14.60
2019-05-12T22:23:06.176Z,14.50
2019-05-12T22:25:24.208Z,14.50
2019-05-12T22:27:46.239Z,14.50
2019-05-12T22:30:07.863Z,14.40
2019-05-12T22:32:29.875Z,14.40
2019-05-12T22:34:51.494Z,14.30
2019-05-12T22:37:13.571Z,14.30
2019-05-12T22:39:35.524Z,14.20
2019-05-12T22:41:57.099Z,14.20
2019-05-12T22:44:22.036Z,14.20
2019-05-12T22:46:43.590Z,14.10
2019-05-12T22:49:10.343Z,14.10
2019-05-12T22:51:29.032Z,14.00
2019-05-12T22:53:50.686Z,14.00
2019-05-12T22:56:17.523Z,13.90
2019-05-12T22:58:35.909Z,13.90
2019-05-12T23:01:01.056Z,13.80
2019-05-12T23:03:20.970Z,13.80
2019-05-12T23:05:42.951Z,13.80
2019-05-12T23:08:06.728Z,13.80
2019-05-12T23:10:27.998Z,13.70
2019-05-12T23:12:50.180Z,13.70
2019-05-12T23:15:13.647Z,13.70
2019-05-12T23:17:39.050Z,13.60
2019-05-12T23:19:58.954Z,13.60
2019-05-12T23:22:20.587Z,13.60
2019-05-12T23:24:44.127Z,13.60
2019-05-12T23:27:08.583Z,13.50
2019-05-12T23:29:31.031Z,13.50
2019-05-12T23:31:53.671Z,13.50
2019-05-12T23:34:15.479Z,13.50
2019-05-12T23:36:39.178Z,13.40
2019-05-12T23:39:01.996Z,13.40
2019-05-12T23:41:24.012Z,13.40
2019-05-12T23:43:45.648Z,13.40
2019-05-12T23:46:07.332Z,13.40
2019-05-12T23:48:28.962Z,13.30
2019-05-12T23:50:50.575Z,13.30
2019-05-12T23:53:14.062Z,13.30
2019-05-12T23:55:35.644Z,13.30
2019-05-12T23:57:57.265Z,13.30
